sensor_id;sensor_type;location;lat;lon;timestamp;pressure;altitude;pressure_sealevel;temperature;humidity
80333;BME280;69652;51.864;-2.246;2023-11-18T00:01:21;101595.97;;;9.38;86.63
80333;BME280;69652;51.864;-2.246;2023-11-18T00:03:47;101581.88;;;9.41;87.73
80333;BME280;69652;51.864;-2.246;2023-11-18T00:06:13;101572.38;;;9.44;86.77
80333;BME280;69652;51.864;-2.246;2023-11-18T00:08:38;101571.00;;;9.47;86.96
80333;BME280;69652;51.864;-2.246;2023-11-18T00:11:04;101573.19;;;9.50;87.50
80333;BME280;69652;51.864;-2.246;2023-11-18T00:13:30;101563.69;;;9.47;87.20
80333;BME280;69652;51.864;-2.246;2023-11-18T00:15:55;101551.22;;;9.51;87.52
80333;BME280;69652;51.864;-2.246;2023-11-18T00:18:21;101563.44;;;9.54;87.57
80333;BME280;69652;51.864;-2.246;2023-11-18T00:20:47;101558.25;;;9.57;87.63
80333;BME280;69652;51.864;-2.246;2023-11-18T00:23:12;101553.09;;;9.61;87.06
80333;BME280;69652;51.864;-2.246;2023-11-18T00:25:38;101530.31;;;9.67;87.26
80333;BME280;69652;51.864;-2.246;2023-11-18T00:28:05;101513.25;;;9.66;87.12
80333;BME280;69652;51.864;-2.246;2023-11-18T00:30:33;101508.63;;;9.67;86.99
80333;BME280;69652;51.864;-2.246;2023-11-18T00:32:58;101493.19;;;9.67;87.61
80333;BME280;69652;51.864;-2.246;2023-11-18T00:35:24;101470.66;;;9.72;87.52
80333;BME280;69652;51.864;-2.246;2023-11-18T00:37:49;101471.44;;;9.77;87.07
80333;BME280;69652;51.864;-2.246;2023-11-18T00:40:15;101450.78;;;9.82;87.25
80333;BME280;69652;51.864;-2.246;2023-11-18T00:42:43;101430.19;;;9.81;87.59
80333;BME280;69652;51.864;-2.246;2023-11-18T00:45:09;101430.19;;;9.86;87.61
80333;BME280;69652;51.864;-2.246;2023-11-18T00:47:38;101425.78;;;9.95;87.24
80333;BME280;69652;51.864;-2.246;2023-11-18T00:50:04;101420.09;;;9.91;87.36
80333;BME280;69652;51.864;-2.246;2023-11-18T00:52:33;101416.34;;;9.82;88.48
80333;BME280;69652;51.864;-2.246;2023-11-18T00:54:59;101427.00;;;9.73;88.78
80333;BME280;69652;51.864;-2.246;2023-11-18T00:57:24;101406.13;;;9.74;89.79
80333;BME280;69652;51.864;-2.246;2023-11-18T00:59:50;101402.63;;;9.68;89.68
80333;BME280;69652;51.864;-2.246;2023-11-18T01:02:16;101402.91;;;9.67;91.35
80333;BME280;69652;51.864;-2.246;2023-11-18T01:04:44;101396.72;;;9.61;90.47
80333;BME280;69652;51.864;-2.246;2023-11-18T01:07:11;101390.19;;;9.67;91.05
80333;BME280;69652;51.864;-2.246;2023-11-18T01:09:38;101411.59;;;9.64;91.16
80333;BME280;69652;51.864;-2.246;2023-11-18T01:12:04;101388.84;;;9.65;90.71
80333;BME280;69652;51.864;-2.246;2023-11-18T01:14:31;101377.41;;;9.68;91.65
80333;BME280;69652;51.864;-2.246;2023-11-18T01:16:56;101376.03;;;9.70;91.81
80333;BME280;69652;51.864;-2.246;2023-11-18T01:19:22;101391.22;;;9.71;91.81
80333;BME280;69652;51.864;-2.246;2023-11-18T01:21:49;101378.75;;;9.70;91.19
80333;BME280;69652;51.864;-2.246;2023-11-18T01:24:14;101339.44;;;9.73;92.20
80333;BME280;69652;51.864;-2.246;2023-11-18T01:26:41;101320.72;;;9.76;92.04
80333;BME280;69652;51.864;-2.246;2023-11-18T01:29:07;101313.66;;;9.75;92.39
80333;BME280;69652;51.864;-2.246;2023-11-18T01:31:32;101325.28;;;9.81;92.23
80333;BME280;69652;51.864;-2.246;2023-11-18T01:33:58;101345.59;;;9.84;92.06
80333;BME280;69652;51.864;-2.246;2023-11-18T01:36:25;101345.03;;;9.87;92.38
80333;BME280;69652;51.864;-2.246;2023-11-18T01:38:50;101345.56;;;9.89;91.72
80333;BME280;69652;51.864;-2.246;2023-11-18T01:41:16;101340.09;;;9.94;92.34
80333;BME280;69652;51.864;-2.246;2023-11-18T01:43:43;101327.88;;;9.96;91.95
80333;BME280;69652;51.864;-2.246;2023-11-18T01:46:10;101319.44;;;9.98;92.48
80333;BME280;69652;51.864;-2.246;2023-11-18T01:48:39;101314.84;;;9.98;92.09
80333;BME280;69652;51.864;-2.246;2023-11-18T01:51:06;101319.97;;;10.00;92.05
80333;BME280;69652;51.864;-2.246;2023-11-18T01:53:34;101312.88;;;10.04;92.03
80333;BME280;69652;51.864;-2.246;2023-11-18T01:56:00;101310.97;;;10.04;92.68
80333;BME280;69652;51.864;-2.246;2023-11-18T01:58:28;101317.22;;;10.05;92.61
80333;BME280;69652;51.864;-2.246;2023-11-18T02:00:56;101320.72;;;10.05;93.00
80333;BME280;69652;51.864;-2.246;2023-11-18T02:03:22;101318.00;;;10.05;92.91
80333;BME280;69652;51.864;-2.246;2023-11-18T02:05:48;101312.31;;;10.07;92.94
80333;BME280;69652;51.864;-2.246;2023-11-18T02:08:14;101307.41;;;10.09;92.83
80333;BME280;69652;51.864;-2.246;2023-11-18T02:10:47;101309.56;;;10.12;93.34
80333;BME280;69652;51.864;-2.246;2023-11-18T02:13:26;101301.72;;;10.10;93.28
80333;BME280;69652;51.864;-2.246;2023-11-18T02:15:56;101297.91;;;10.11;92.75
80333;BME280;69652;51.864;-2.246;2023-11-18T02:18:31;101283.78;;;10.14;93.43
80333;BME280;69652;51.864;-2.246;2023-11-18T02:20:57;101280.75;;;10.16;93.56
80333;BME280;69652;51.864;-2.246;2023-11-18T02:23:27;101251.47;;;10.18;93.75
80333;BME280;69652;51.864;-2.246;2023-11-18T02:25:53;101237.06;;;10.18;93.73
80333;BME280;69652;51.864;-2.246;2023-11-18T02:28:21;101232.19;;;10.20;94.21
80333;BME280;69652;51.864;-2.246;2023-11-18T02:30:46;101230.56;;;10.19;94.21
80333;BME280;69652;51.864;-2.246;2023-11-18T02:35:54;101224.88;;;10.15;94.85
80333;BME280;69652;51.864;-2.246;2023-11-18T02:38:30;101232.53;;;10.13;93.98
80333;BME280;69652;51.864;-2.246;2023-11-18T02:40:59;101220.06;;;10.12;95.49
80333;BME280;69652;51.864;-2.246;2023-11-18T02:43:27;101210.53;;;10.14;95.57
80333;BME280;69652;51.864;-2.246;2023-11-18T02:45:56;101196.16;;;10.14;95.42
80333;BME280;69652;51.864;-2.246;2023-11-18T02:48:23;101187.19;;;10.19;95.72
80333;BME280;69652;51.864;-2.246;2023-11-18T02:50:49;101153.53;;;10.20;95.08
80333;BME280;69652;51.864;-2.246;2023-11-18T02:53:14;101146.72;;;10.22;95.43
80333;BME280;69652;51.864;-2.246;2023-11-18T02:55:40;101155.59;;;10.28;96.04
80333;BME280;69652;51.864;-2.246;2023-11-18T02:58:06;101146.88;;;10.31;95.80
80333;BME280;69652;51.864;-2.246;2023-11-18T03:00:33;101138.44;;;10.32;95.33
80333;BME280;69652;51.864;-2.246;2023-11-18T03:02:58;101136.25;;;10.34;95.57
80333;BME280;69652;51.864;-2.246;2023-11-18T03:05:24;101119.09;;;10.39;95.83
80333;BME280;69652;51.864;-2.246;2023-11-18T03:07:51;101118.50;;;10.42;96.06
80333;BME280;69652;51.864;-2.246;2023-11-18T03:10:19;101123.59;;;10.48;96.08
80333;BME280;69652;51.864;-2.246;2023-11-18T03:12:51;101119.47;;;10.51;95.59
80333;BME280;69652;51.864;-2.246;2023-11-18T03:15:23;101092.31;;;10.51;95.24
80333;BME280;69652;51.864;-2.246;2023-11-18T03:17:49;101079.50;;;10.57;95.80
80333;BME280;69652;51.864;-2.246;2023-11-18T03:20:22;101068.34;;;10.58;95.82
80333;BME280;69652;51.864;-2.246;2023-11-18T03:22:49;101064.53;;;10.59;95.61
80333;BME280;69652;51.864;-2.246;2023-11-18T03:25:16;101057.63;;;10.67;95.32
80333;BME280;69652;51.864;-2.246;2023-11-18T03:27:42;101057.91;;;10.65;95.88
80333;BME280;69652;51.864;-2.246;2023-11-18T03:30:09;101047.28;;;10.69;95.81
80333;BME280;69652;51.864;-2.246;2023-11-18T03:32:38;101023.88;;;10.73;95.51
80333;BME280;69652;51.864;-2.246;2023-11-18T03:35:06;101030.41;;;10.72;95.99
80333;BME280;69652;51.864;-2.246;2023-11-18T03:37:37;101016.44;;;10.78;95.12
80333;BME280;69652;51.864;-2.246;2023-11-18T03:40:06;101014.22;;;10.80;95.58
80333;BME280;69652;51.864;-2.246;2023-11-18T03:42:31;101006.91;;;10.81;95.40
80333;BME280;69652;51.864;-2.246;2023-11-18T03:44:57;100992.91;;;10.88;95.52
80333;BME280;69652;51.864;-2.246;2023-11-18T03:47:22;100975.53;;;10.89;94.93
80333;BME280;69652;51.864;-2.246;2023-11-18T03:49:50;100992.34;;;10.91;95.59
80333;BME280;69652;51.864;-2.246;2023-11-18T03:52:15;100995.25;;;10.94;94.79
80333;BME280;69652;51.864;-2.246;2023-11-18T03:54:41;100990.34;;;10.96;95.05
80333;BME280;69652;51.864;-2.246;2023-11-18T03:57:07;100984.59;;;10.98;94.80
80333;BME280;69652;51.864;-2.246;2023-11-18T03:59:32;100984.59;;;10.98;95.60
80333;BME280;69652;51.864;-2.246;2023-11-18T04:01:58;100980.47;;;11.00;95.27
80333;BME280;69652;51.864;-2.246;2023-11-18T04:04:23;100977.47;;;11.02;95.33
80333;BME280;69652;51.864;-2.246;2023-11-18T04:06:49;100973.06;;;11.06;95.24
80333;BME280;69652;51.864;-2.246;2023-11-18T04:09:14;100977.88;;;11.09;95.15
80333;BME280;69652;51.864;-2.246;2023-11-18T04:11:39;100967.03;;;11.09;95.51
80333;BME280;69652;51.864;-2.246;2023-11-18T04:14:10;100964.59;;;11.07;95.49
80333;BME280;69652;51.864;-2.246;2023-11-18T04:16:36;100952.41;;;11.05;95.98
80333;BME280;69652;51.864;-2.246;2023-11-18T04:19:03;100946.19;;;11.04;96.25
80333;BME280;69652;51.864;-2.246;2023-11-18T04:21:29;100939.34;;;11.07;96.30
80333;BME280;69652;51.864;-2.246;2023-11-18T04:23:55;100916.50;;;11.08;97.05
80333;BME280;69652;51.864;-2.246;2023-11-18T04:26:20;100927.38;;;11.08;96.61
80333;BME280;69652;51.864;-2.246;2023-11-18T04:28:46;100929.00;;;11.09;97.18
80333;BME280;69652;51.864;-2.246;2023-11-18T04:31:11;100934.91;;;11.11;96.95
80333;BME280;69652;51.864;-2.246;2023-11-18T04:33:37;100943.69;;;11.08;97.08
80333;BME280;69652;51.864;-2.246;2023-11-18T04:36:02;100938.13;;;11.13;97.85
80333;BME280;69652;51.864;-2.246;2023-11-18T04:38:30;100935.94;;;11.15;97.43
80333;BME280;69652;51.864;-2.246;2023-11-18T04:40:57;100926.47;;;11.12;96.70
80333;BME280;69652;51.864;-2.246;2023-11-18T04:43:22;100917.22;;;11.13;97.60
80333;BME280;69652;51.864;-2.246;2023-11-18T04:45:49;100902.22;;;11.16;97.32
80333;BME280;69652;51.864;-2.246;2023-11-18T04:48:14;100893.78;;;11.17;97.40
80333;BME280;69652;51.864;-2.246;2023-11-18T04:50:43;100877.66;;;11.21;98.06
80333;BME280;69652;51.864;-2.246;2023-11-18T04:53:09;100877.56;;;11.26;98.09
80333;BME280;69652;51.864;-2.246;2023-11-18T04:55:39;100882.09;;;11.31;97.21
80333;BME280;69652;51.864;-2.246;2023-11-18T04:58:05;100867.88;;;11.34;97.60
80333;BME280;69652;51.864;-2.246;2023-11-18T05:00:34;100858.63;;;11.35;97.77
80333;BME280;69652;51.864;-2.246;2023-11-18T05:03:00;100850.34;;;11.40;97.00
80333;BME280;69652;51.864;-2.246;2023-11-18T05:05:25;100841.91;;;11.41;97.25
80333;BME280;69652;51.864;-2.246;2023-11-18T05:07:51;100851.03;;;11.45;97.09
80333;BME280;69652;51.864;-2.246;2023-11-18T05:10:16;100848.53;;;11.49;97.69
80333;BME280;69652;51.864;-2.246;2023-11-18T05:12:42;100843.09;;;11.49;96.99
80333;BME280;69652;51.864;-2.246;2023-11-18T05:15:09;100849.63;;;11.48;97.70
80333;BME280;69652;51.864;-2.246;2023-11-18T05:17:38;100841.47;;;11.48;97.83
80333;BME280;69652;51.864;-2.246;2023-11-18T05:20:04;100832.72;;;11.51;97.32
80333;BME280;69652;51.864;-2.246;2023-11-18T05:22:30;100830.00;;;11.51;97.29
80333;BME280;69652;51.864;-2.246;2023-11-18T05:24:57;100836.59;;;11.58;98.19
80333;BME280;69652;51.864;-2.246;2023-11-18T05:27:22;100837.09;;;11.61;98.01
80333;BME280;69652;51.864;-2.246;2023-11-18T05:29:48;100841.94;;;11.64;98.39
80333;BME280;69652;51.864;-2.246;2023-11-18T05:32:20;100843.25;;;11.66;97.70
80333;BME280;69652;51.864;-2.246;2023-11-18T05:34:46;100837.97;;;11.70;98.74
80333;BME280;69652;51.864;-2.246;2023-11-18T05:37:12;100831.44;;;11.71;98.96
80333;BME280;69652;51.864;-2.246;2023-11-18T05:39:38;100828.41;;;11.72;99.15
80333;BME280;69652;51.864;-2.246;2023-11-18T05:42:09;100833.78;;;11.77;99.38
80333;BME280;69652;51.864;-2.246;2023-11-18T05:44:36;100822.09;;;11.77;98.24
80333;BME280;69652;51.864;-2.246;2023-11-18T05:47:04;100816.19;;;11.83;98.57
80333;BME280;69652;51.864;-2.246;2023-11-18T05:49:30;100815.22;;;11.79;98.38
80333;BME280;69652;51.864;-2.246;2023-11-18T05:51:57;100806.75;;;11.81;99.11
80333;BME280;69652;51.864;-2.246;2023-11-18T05:54:22;100792.53;;;11.84;98.48
80333;BME280;69652;51.864;-2.246;2023-11-18T05:56:48;100787.78;;;11.89;98.13
80333;BME280;69652;51.864;-2.246;2023-11-18T05:59:13;100793.53;;;11.88;97.82
80333;BME280;69652;51.864;-2.246;2023-11-18T06:01:39;100792.91;;;11.91;99.04
80333;BME280;69652;51.864;-2.246;2023-11-18T06:04:05;100786.03;;;11.93;99.21
80333;BME280;69652;51.864;-2.246;2023-11-18T06:06:33;100786.34;;;11.92;98.84
80333;BME280;69652;51.864;-2.246;2023-11-18T06:08:59;100775.66;;;11.96;99.37
80333;BME280;69652;51.864;-2.246;2023-11-18T06:11:30;100764.16;;;11.99;98.97
80333;BME280;69652;51.864;-2.246;2023-11-18T06:13:57;100769.91;;;11.97;99.55
80333;BME280;69652;51.864;-2.246;2023-11-18T06:16:24;100767.50;;;11.96;99.10
80333;BME280;69652;51.864;-2.246;2023-11-18T06:18:51;100766.69;;;11.95;99.51
80333;BME280;69652;51.864;-2.246;2023-11-18T06:21:19;100760.81;;;12.02;98.90
80333;BME280;69652;51.864;-2.246;2023-11-18T06:23:47;100752.50;;;12.07;99.33
80333;BME280;69652;51.864;-2.246;2023-11-18T06:26:13;100748.31;;;12.01;99.14
80333;BME280;69652;51.864;-2.246;2023-11-18T06:28:40;100742.81;;;12.14;100.00
80333;BME280;69652;51.864;-2.246;2023-11-18T06:31:06;100743.25;;;12.16;99.47
80333;BME280;69652;51.864;-2.246;2023-11-18T06:33:42;100732.56;;;12.20;99.25
80333;BME280;69652;51.864;-2.246;2023-11-18T06:38:39;100734.34;;;12.24;100.00
80333;BME280;69652;51.864;-2.246;2023-11-18T06:41:06;100729.63;;;12.39;100.00
80333;BME280;69652;51.864;-2.246;2023-11-18T06:43:36;100738.91;;;12.38;100.00
80333;BME280;69652;51.864;-2.246;2023-11-18T06:46:21;100719.06;;;12.54;100.00
80333;BME280;69652;51.864;-2.246;2023-11-18T06:48:56;100721.81;;;12.63;100.00
80333;BME280;69652;51.864;-2.246;2023-11-18T06:51:22;100743.47;;;12.68;100.00
80333;BME280;69652;51.864;-2.246;2023-11-18T06:53:50;100734.84;;;12.83;100.00
80333;BME280;69652;51.864;-2.246;2023-11-18T06:56:15;100742.84;;;12.88;100.00
80333;BME280;69652;51.864;-2.246;2023-11-18T06:58:41;100747.06;;;13.03;100.00
80333;BME280;69652;51.864;-2.246;2023-11-18T07:01:08;100747.53;;;13.14;100.00
80333;BME280;69652;51.864;-2.246;2023-11-18T07:03:35;100738.59;;;13.22;100.00
80333;BME280;69652;51.864;-2.246;2023-11-18T07:06:02;100714.88;;;13.22;100.00
80333;BME280;69652;51.864;-2.246;2023-11-18T07:08:31;100712.47;;;13.21;100.00
80333;BME280;69652;51.864;-2.246;2023-11-18T07:10:56;100720.16;;;13.27;100.00
80333;BME280;69652;51.864;-2.246;2023-11-18T07:13:22;100715.50;;;13.28;100.00
80333;BME280;69652;51.864;-2.246;2023-11-18T07:15:49;100713.59;;;13.28;100.00
80333;BME280;69652;51.864;-2.246;2023-11-18T07:18:15;100712.97;;;13.31;100.00
80333;BME280;69652;51.864;-2.246;2023-11-18T07:20:41;100707.19;;;13.33;100.00
80333;BME280;69652;51.864;-2.246;2023-11-18T07:23:07;100695.31;;;13.37;100.00
80333;BME280;69652;51.864;-2.246;2023-11-18T07:25:34;100698.84;;;13.38;100.00
80333;BME280;69652;51.864;-2.246;2023-11-18T07:27:59;100699.00;;;13.42;100.00
80333;BME280;69652;51.864;-2.246;2023-11-18T07:30:25;100706.66;;;13.48;100.00
80333;BME280;69652;51.864;-2.246;2023-11-18T07:32:51;100705.56;;;13.49;100.00
80333;BME280;69652;51.864;-2.246;2023-11-18T07:35:16;100719.19;;;13.49;100.00
80333;BME280;69652;51.864;-2.246;2023-11-18T07:37:43;100713.41;;;13.51;100.00
80333;BME280;69652;51.864;-2.246;2023-11-18T07:40:09;100716.31;;;13.54;100.00
80333;BME280;69652;51.864;-2.246;2023-11-18T07:42:37;100711.47;;;13.60;100.00
80333;BME280;69652;51.864;-2.246;2023-11-18T07:45:04;100693.03;;;13.65;100.00
80333;BME280;69652;51.864;-2.246;2023-11-18T07:47:32;100701.50;;;13.72;100.00
80333;BME280;69652;51.864;-2.246;2023-11-18T07:49:59;100703.59;;;13.76;100.00
80333;BME280;69652;51.864;-2.246;2023-11-18T07:52:28;100699.72;;;13.77;100.00
80333;BME280;69652;51.864;-2.246;2023-11-18T07:54:54;100704.19;;;13.81;100.00
80333;BME280;69652;51.864;-2.246;2023-11-18T07:57:19;100688.19;;;13.80;100.00
80333;BME280;69652;51.864;-2.246;2023-11-18T07:59:45;100691.84;;;13.84;100.00
80333;BME280;69652;51.864;-2.246;2023-11-18T08:02:10;100696.00;;;13.81;100.00
80333;BME280;69652;51.864;-2.246;2023-11-18T08:04:36;100707.41;;;13.83;100.00
80333;BME280;69652;51.864;-2.246;2023-11-18T08:07:02;100722.34;;;13.86;100.00
80333;BME280;69652;51.864;-2.246;2023-11-18T08:09:30;100706.59;;;13.83;100.00
80333;BME280;69652;51.864;-2.246;2023-11-18T08:11:57;100702.75;;;13.84;100.00
80333;BME280;69652;51.864;-2.246;2023-11-18T08:14:22;100684.78;;;13.83;100.00
80333;BME280;69652;51.864;-2.246;2023-11-18T08:16:48;100703.22;;;13.86;100.00
80333;BME280;69652;51.864;-2.246;2023-11-18T08:19:15;100704.84;;;13.87;100.00
80333;BME280;69652;51.864;-2.246;2023-11-18T08:21:40;100705.63;;;13.87;100.00
80333;BME280;69652;51.864;-2.246;2023-11-18T08:24:07;100702.91;;;13.87;100.00
80333;BME280;69652;51.864;-2.246;2023-11-18T08:26:34;100709.00;;;13.84;100.00
80333;BME280;69652;51.864;-2.246;2023-11-18T08:29:00;100706.91;;;13.90;100.00
80333;BME280;69652;51.864;-2.246;2023-11-18T08:31:26;100690.69;;;13.93;100.00
80333;BME280;69652;51.864;-2.246;2023-11-18T08:33:51;100693.75;;;13.92;100.00
80333;BME280;69652;51.864;-2.246;2023-11-18T08:36:20;100701.16;;;13.91;100.00
80333;BME280;69652;51.864;-2.246;2023-11-18T08:38:48;100690.69;;;13.93;100.00
80333;BME280;69652;51.864;-2.246;2023-11-18T08:41:13;100684.25;;;13.98;100.00
80333;BME280;69652;51.864;-2.246;2023-11-18T08:43:39;100681.84;;;13.96;100.00
80333;BME280;69652;51.864;-2.246;2023-11-18T08:46:06;100673.66;;;13.96;100.00
80333;BME280;69652;51.864;-2.246;2023-11-18T08:48:32;100675.59;;;13.96;100.00
80333;BME280;69652;51.864;-2.246;2023-11-18T08:50:59;100685.84;;;13.99;100.00
80333;BME280;69652;51.864;-2.246;2023-11-18T08:53:27;100675.75;;;13.99;100.00
80333;BME280;69652;51.864;-2.246;2023-11-18T08:55:53;100676.06;;;13.98;100.00
80333;BME280;69652;51.864;-2.246;2023-11-18T08:58:21;100669.47;;;13.99;100.00
80333;BME280;69652;51.864;-2.246;2023-11-18T09:00:55;100670.59;;;13.98;100.00
80333;BME280;69652;51.864;-2.246;2023-11-18T09:03:25;100674.47;;;13.97;100.00
80333;BME280;69652;51.864;-2.246;2023-11-18T09:05:51;100677.34;;;14.00;100.00
80333;BME280;69652;51.864;-2.246;2023-11-18T09:08:36;100686.81;;;14.03;100.00
80333;BME280;69652;51.864;-2.246;2023-11-18T09:11:07;100694.66;;;14.04;100.00
80333;BME280;69652;51.864;-2.246;2023-11-18T09:13:34;100697.53;;;14.08;100.00
80333;BME280;69652;51.864;-2.246;2023-11-18T09:16:04;100696.88;;;14.11;100.00
80333;BME280;69652;51.864;-2.246;2023-11-18T09:18:38;100698.50;;;14.12;100.00
80333;BME280;69652;51.864;-2.246;2023-11-18T09:21:04;100703.31;;;14.15;100.00
80333;BME280;69652;51.864;-2.246;2023-11-18T09:23:33;100686.13;;;14.15;100.00
80333;BME280;69652;51.864;-2.246;2023-11-18T09:26:00;100678.59;;;14.12;100.00
80333;BME280;69652;51.864;-2.246;2023-11-18T09:28:27;100702.16;;;14.16;100.00
80333;BME280;69652;51.864;-2.246;2023-11-18T09:30:58;100701.69;;;14.14;100.00
80333;BME280;69652;51.864;-2.246;2023-11-18T09:33:26;100698.66;;;14.16;100.00
80333;BME280;69652;51.864;-2.246;2023-11-18T09:36:03;100704.22;;;14.19;100.00
80333;BME280;69652;51.864;-2.246;2023-11-18T09:38:34;100713.06;;;14.16;100.00
80333;BME280;69652;51.864;-2.246;2023-11-18T09:41:07;100708.88;;;14.19;100.00
80333;BME280;69652;51.864;-2.246;2023-11-18T09:43:37;100701.81;;;14.18;100.00
80333;BME280;69652;51.864;-2.246;2023-11-18T09:46:13;100697.31;;;14.22;100.00
80333;BME280;69652;51.864;-2.246;2023-11-18T09:48:47;100702.13;;;14.25;100.00
80333;BME280;69652;51.864;-2.246;2023-11-18T09:51:23;100684.94;;;14.24;100.00
80333;BME280;69652;51.864;-2.246;2023-11-18T09:53:53;100690.09;;;14.17;99.98
80333;BME280;69652;51.864;-2.246;2023-11-18T09:59:25;100691.22;;;14.16;100.00
80333;BME280;69652;51.864;-2.246;2023-11-18T10:01:57;100699.63;;;14.11;99.92
80333;BME280;69652;51.864;-2.246;2023-11-18T10:04:24;100699.63;;;14.11;100.00
80333;BME280;69652;51.864;-2.246;2023-11-18T10:06:54;100711.66;;;14.10;100.00
80333;BME280;69652;51.864;-2.246;2023-11-18T10:09:26;100715.03;;;14.07;100.00
80333;BME280;69652;51.864;-2.246;2023-11-18T10:12:05;100723.91;;;14.04;99.82
80333;BME280;69652;51.864;-2.246;2023-11-18T10:14:36;100727.41;;;14.04;100.00
80333;BME280;69652;51.864;-2.246;2023-11-18T10:17:07;100753.91;;;14.04;100.00
80333;BME280;69652;51.864;-2.246;2023-11-18T10:19:52;100745.91;;;13.90;100.00
80333;BME280;69652;51.864;-2.246;2023-11-18T10:22:29;100737.06;;;14.02;99.36
80333;BME280;69652;51.864;-2.246;2023-11-18T10:24:57;100723.91;;;13.95;99.65
80333;BME280;69652;51.864;-2.246;2023-11-18T10:29:49;100727.28;;;14.01;98.93
80333;BME280;69652;51.864;-2.246;2023-11-18T10:32:17;100719.69;;;14.06;98.73
80333;BME280;69652;51.864;-2.246;2023-11-18T10:34:47;100730.94;;;14.14;98.00
80333;BME280;69652;51.864;-2.246;2023-11-18T10:37:15;100731.84;;;14.18;98.86
80333;BME280;69652;51.864;-2.246;2023-11-18T10:39:46;100725.28;;;14.19;98.23
80333;BME280;69652;51.864;-2.246;2023-11-18T10:42:12;100714.50;;;14.22;98.39
80333;BME280;69652;51.864;-2.246;2023-11-18T10:44:37;100716.91;;;14.24;97.58
80333;BME280;69652;51.864;-2.246;2023-11-18T10:47:05;100723.16;;;14.24;97.52
80333;BME280;69652;51.864;-2.246;2023-11-18T10:49:33;100711.59;;;14.27;97.56
80333;BME280;69652;51.864;-2.246;2023-11-18T10:52:02;100716.88;;;14.32;97.43
80333;BME280;69652;51.864;-2.246;2023-11-18T10:54:32;100721.38;;;14.28;97.54
80333;BME280;69652;51.864;-2.246;2023-11-18T10:57:01;100739.72;;;14.28;96.37
80333;BME280;69652;51.864;-2.246;2023-11-18T10:59:32;100743.22;;;14.28;96.97
80333;BME280;69652;51.864;-2.246;2023-11-18T11:02:01;100737.44;;;14.30;97.86
80333;BME280;69652;51.864;-2.246;2023-11-18T11:04:43;100742.41;;;14.36;97.32
80333;BME280;69652;51.864;-2.246;2023-11-18T11:07:10;100742.22;;;14.41;96.34
80333;BME280;69652;51.864;-2.246;2023-11-18T11:09:38;100730.47;;;14.50;96.23
80333;BME280;69652;51.864;-2.246;2023-11-18T11:12:10;100712.75;;;14.56;96.70
80333;BME280;69652;51.864;-2.246;2023-11-18T11:14:50;100708.72;;;14.62;95.57
80333;BME280;69652;51.864;-2.246;2023-11-18T11:17:20;100704.50;;;14.64;95.84
80333;BME280;69652;51.864;-2.246;2023-11-18T11:20:05;100686.00;;;14.70;94.63
80333;BME280;69652;51.864;-2.246;2023-11-18T11:23:13;100682.16;;;14.71;95.40
80333;BME280;69652;51.864;-2.246;2023-11-18T11:26:02;100692.50;;;14.57;94.57
80333;BME280;69652;51.864;-2.246;2023-11-18T11:28:58;100686.56;;;14.55;94.91
80333;BME280;69652;51.864;-2.246;2023-11-18T11:31:54;100678.59;;;14.50;94.47
80333;BME280;69652;51.864;-2.246;2023-11-18T11:34:24;100682.91;;;14.51;95.19
80333;BME280;69652;51.864;-2.246;2023-11-18T11:36:53;100681.59;;;14.57;94.64
80333;BME280;69652;51.864;-2.246;2023-11-18T11:39:20;100691.72;;;14.56;94.35
80333;BME280;69652;51.864;-2.246;2023-11-18T11:41:54;100697.59;;;14.67;94.38
80333;BME280;69652;51.864;-2.246;2023-11-18T11:44:22;100704.97;;;14.66;94.41
80333;BME280;69652;51.864;-2.246;2023-11-18T11:46:54;100730.75;;;14.57;92.66
80333;BME280;69652;51.864;-2.246;2023-11-18T11:49:22;100709.88;;;14.52;93.03
80333;BME280;69652;51.864;-2.246;2023-11-18T11:52:04;100721.47;;;14.49;93.25
80333;BME280;69652;51.864;-2.246;2023-11-18T11:54:41;100728.88;;;14.49;93.18
80333;BME280;69652;51.864;-2.246;2023-11-18T11:57:10;100718.75;;;14.49;93.05
80333;BME280;69652;51.864;-2.246;2023-11-18T12:02:13;100726.31;;;14.43;92.63
80333;BME280;69652;51.864;-2.246;2023-11-18T12:04:51;100741.78;;;14.39;93.32
80333;BME280;69652;51.864;-2.246;2023-11-18T12:07:23;100748.81;;;14.40;93.46
80333;BME280;69652;51.864;-2.246;2023-11-18T12:09:49;100725.22;;;14.36;94.48
80333;BME280;69652;51.864;-2.246;2023-11-18T12:12:22;100720.56;;;14.36;94.92
80333;BME280;69652;51.864;-2.246;2023-11-18T12:14:53;100736.13;;;14.36;93.81
80333;BME280;69652;51.864;-2.246;2023-11-18T12:17:22;100719.75;;;14.36;93.65
80333;BME280;69652;51.864;-2.246;2023-11-18T12:19:48;100731.47;;;14.36;94.37
80333;BME280;69652;51.864;-2.246;2023-11-18T12:30:47;100708.88;;;14.27;94.70
80333;BME280;69652;51.864;-2.246;2023-11-18T12:35:29;100698.06;;;14.31;94.13
80333;BME280;69652;51.864;-2.246;2023-11-18T12:41:01;100724.09;;;14.28;94.04
80333;BME280;69652;51.864;-2.246;2023-11-18T12:43:48;100708.25;;;14.22;94.73
80333;BME280;69652;51.864;-2.246;2023-11-18T12:48:56;100697.97;;;14.19;93.30
80333;BME280;69652;51.864;-2.246;2023-11-18T12:51:22;100700.38;;;14.20;94.19
80333;BME280;69652;51.864;-2.246;2023-11-18T12:53:48;100711.94;;;14.17;93.92
80333;BME280;69652;51.864;-2.246;2023-11-18T12:56:19;100697.97;;;14.19;93.22
80333;BME280;69652;51.864;-2.246;2023-11-18T12:58:46;100698.78;;;14.19;93.31
80333;BME280;69652;51.864;-2.246;2023-11-18T13:01:13;100704.22;;;14.19;93.48
80333;BME280;69652;51.864;-2.246;2023-11-18T13:03:43;100724.94;;;14.20;93.10
80333;BME280;69652;51.864;-2.246;2023-11-18T13:06:09;100717.56;;;14.21;92.72
80333;BME280;69652;51.864;-2.246;2023-11-18T13:08:38;100700.22;;;14.17;93.30
80333;BME280;69652;51.864;-2.246;2023-11-18T13:11:04;100692.84;;;14.17;92.29
80333;BME280;69652;51.864;-2.246;2023-11-18T13:13:36;100684.19;;;14.15;92.21